This demonstration page uses our WeatherBlox Daily Observations layout. Learn more.

39.01783, -85.05884

Hourly Observations for May 27, 2019

Temp ( °F °C ) Dew Point ( °F °C ) Humidity (%) Winds ( mph kmh ) Pressure ( in mb ) Visibility ( mi km ) Precip ( " mm )
12:52 am 00:52 Mostly Clear 69 20.6 66 18.9 90 90 Calm 30 1016 10 16.09344 0 0
1:52 am 01:52 Mostly Clear 67 19.4 65 18.3 93 93 Calm 30 1016 7 11.265408 0 0
2:52 am 02:52 Clear 68 20 65 18.3 90 90 NNW 3 6 30 1016 7 11.265408 0 0
3:52 am 03:52 Mostly Cloudy 66 18.9 63 17.2 90 90 Calm 30 1016 9 14.484096 0 0
4:52 am 04:52 Cloudy 66 18.9 63 17.2 90 90 N 3 6 30 1016 10 16.09344 0 0
5:52 am 05:52 Partly Cloudy 65 18.3 61 16.1 87 87 Calm 30 1016 10 16.09344 0 0
6:52 am 06:52 Mostly Cloudy 65 18.3 61 16.1 87 87 N 3 6 30.03 1017 10 16.09344 0 0
7:52 am 07:52 Partly Cloudy 69 20.6 61 16.1 76 76 ENE 7 11 30.03 1017 10 16.09344 0 0
8:52 am 08:52 Mostly Cloudy 70 21.1 62 16.7 76 76 NE 6 9 30.03 1017 10 16.09344 0 0
9:52 am 09:52 Mostly Cloudy 74 23.3 63 17.2 69 69 VRB 5 7 30.03 1017 10 16.09344 0 0
10:52 am 10:52 Mostly Cloudy 75 23.9 64 17.8 69 69 SSE 7 11 30 1016 10 16.09344 0 0
11:52 am 11:52 Partly Cloudy 76 24.4 65 18.3 69 69 S 9 15 30 1016 10 16.09344 0 0
12:52 pm 12:52 Partly Cloudy 77 25 65 18.3 66 66 SSE 10 17 30 1016 10 16.09344 0 0
1:52 pm 13:52 Partly Cloudy 79 26.1 66 18.9 65 65 S 9 15 29.97 1015 10 16.09344 0 0
2:52 pm 14:52 Partly Cloudy 80 26.7 66 18.9 62 62 SSE 9 15 29.94 1014 10 16.09344 0 0
3:52 pm 15:52 Cloudy 80 26.7 67 19.4 64 64 S 10 17 29.91 1013 10 16.09344 0 0
4:52 pm 16:52 Partly Cloudy 81 27.2 69 20.6 67 67 S 10 17 29.88 1012 10 16.09344 0 0
5:52 pm 17:52 Mostly Cloudy 81 27.2 68 20 65 65 SSW 10 17 29.85 1011 10 16.09344 0 0
6:52 pm 18:52 Mostly Cloudy 81 27.2 69 20.6 67 67 S 9 15 29.83 1010 10 16.09344 0 0
7:52 pm 19:52 Mostly Cloudy 81 27.2 69 20.6 67 67 S 12 19 29.8 1009 10 16.09344 0 0
8:52 pm 20:52 Mostly Cloudy 78 25.6 68 20 71 71 S 8 13 29.8 1009 10 16.09344 0 0
9:52 pm 21:52 Mostly Cloudy 77 25 68 20 74 74 S 9 15 29.77 1008 10 16.09344 0 0
10:52 pm 22:52 Mostly Cloudy 77 25 66 18.9 69 69 SSW 10 17 29.8 1009 10 16.09344 0 0
11:52 pm 23:52 Mostly Cloudy 76 24.4 65 18.3 69 69 SSW 7 11 29.8 1009 10 16.09344 0 0

Powered by AerisWeather